Logo AVAMET Logo AVAMET
Benvolgut visitant, si us plau, ingressa Recuperar contrasenya
AVAMET paisatges
Union Alcoyana

les Coves de Vinromà Mas del Tonto

Dades diàries. Acumulats / Últims 30 dies disponibles

Data Temperatura (°C) Humitat rel. (%) Pressió rel. (hPa) Vent (km/h) Precipitació
Mínima Mitjana Màxima Amplitud
tèrmica
Mínima Mitjana Màxima Mínima Mitjana Màxima Predom. Mitjana Ràfega
màxima
Total
(mm)
Índex-n
Mínima Mitjana Màxima Mínima Mitjana Màxima n
0 a 1
P0 max
mm 5'
Dades mensuals acumulades fins l'últim dia disponible
05/2024 8,3 11,0 13,2 16,5 17,6 21,8 25,4 17,1 26 59 95 1.004 1.014 1.022   6,5 51,5 25,2
Dades anuals acumulades fins l'últim dia disponible
2024 1,1 8,1 13,4 13,1 8,0 18,5 27,6 26,5 18 61 97 987 1.017 1.038   7,1 93,3 83,4
Últims 30 dies disponibles
18-05-2024 12,9     16,7     21,9 9,0 47 73 90 1.010 1.011 1.014 E 5,8 32,2 0,2
17-05-2024 9,4     16,1     22,3 12,9 49 63 85 1.008 1.009 1.011 SE 5,0 25,7 0,0
15-05-2024 11,8     14,8     19,3 7,5 44 70 90 1.006 1.007 1.009 NNW 4,5 22,5 3,4 0,20
14-05-2024 12,9     16,8     22,7 9,8 38 70 88 1.004 1.006 1.008 NW 6,1 35,4 2,8 0,42 0,40
13-05-2024 12,3     18,1     22,6 10,3 47 66 86 1.008 1.013 1.017 SE 5,0 25,7 0,0
12-05-2024 12,8     17,7     22,9 10,1 47 64 86 1.015 1.017 1.018 SE 4,3 25,7 0,0
11-05-2024 10,2     17,1     22,7 12,5 39 58 81 1.017 1.018 1.020 SE 5,6 29,0 0,0
10-05-2024 10,3     17,0     21,9 11,6 40 57 73 1.018 1.019 1.020 SE 6,3 32,2 0,0
09-05-2024 9,7     17,1     22,9 13,2 35 56 71 1.018 1.020 1.022 SE 7,6 37,0 0,0
08-05-2024 12,3     17,4     22,3 10,0 32 47 64 1.020 1.021 1.022 SE 10,0 51,5 0,0
07-05-2024 11,4     16,6     21,8 10,4 31 51 88 1.017 1.018 1.022 NW 13,2 46,7 0,0
06-05-2024 13,2     17,5     22,5 9,3 52 69 95 1.010 1.012 1.017 SE 5,1 27,4 14,6 0,74 4,00
05-05-2024 11,3     18,4     25,4 14,1 36 57 78 1.010 1.013 1.016 SE 5,8 32,2 0,0
04-05-2024 10,2     17,6     23,8 13,6 29 46 76 1.015 1.016 1.019 SE 5,8 25,7 0,0
03-05-2024 8,8     14,9     19,9 11,1 32 47 75 1.017 1.019 1.020 SE 6,8 29,0 0,0
02-05-2024 8,3     13,1     18,5 10,2 26 51 67 1.011 1.014 1.019 WNW 7,1 35,4 0,0
01-05-2024 9,3     13,3     17,6 8,3 36 62 88 1.006 1.008 1.011 NW 6,0 38,6 4,2 0,42 2,00
30-04-2024 9,7     14,3     19,1 9,4 49 71 89 1.010 1.013 1.016 SSO 4,9 29,0 0,0
29-04-2024 10,6     12,1     13,6 3,0 71 85 92 1.014 1.015 1.016 NW 3,4 20,9 4,4 0,20
28-04-2024 9,0     13,7     17,7 8,7 50 69 90 1.008 1.011 1.016 SE 5,0 27,4 0,0
27-04-2024 11,4     14,8     19,9 8,5 51 76 93 1.002 1.004 1.007 ESE 6,1 40,2 0,6
26-04-2024 6,2     12,5     17,7 11,5 60 79 93 1.006 1.007 1.009 SE 4,5 32,2 0,0
25-04-2024 8,6     12,9     17,1 8,5 40 54 85 1.008 1.011 1.015 SE 5,5 24,1 1,4
24-04-2024 6,7     11,5     18,2 11,5 31 48 70 1.014 1.017 1.018 NW 12,4 51,5 0,0
23-04-2024 7,1     11,2     16,7 9,6 33 45 55 1.014 1.016 1.019 NW 19,8 62,8 0,0
22-04-2024 8,1     11,0     15,6 7,5 30 65 92 1.015 1.016 1.019 NW 9,7 43,5 0,0
21-04-2024 6,0     12,8     18,3 12,3 41 69 91 1.014 1.016 1.018 SE 5,1 32,2 0,0
20-04-2024 6,6     13,6     19,4 12,8 44 67 88 1.015 1.017 1.020 SE 5,0 29,0 0,0
19-04-2024 8,4     12,3     17,3 8,9 45 65 84 1.019 1.022 1.024 SE 6,9 33,8 0,2
18-04-2024 9,6     14,7     20,8 11,2 25 43 80 1.015 1.017 1.021 NW 13,8 49,9 0,0
Últims 13 mesos disponibles
04/2024 4,8 9,3 13,4 14,7 13,6 20,4 27,6 22,8 35 57 85 1.004 1.018 1.031 SE 7,4 66,0 6,6
03/2024 2,1 7,4 12,4 12,6 11,2 18,2 25,2 23,1 45 65 94 992 1.012 1.024 SE 6,7 93,3 32,4
02/2024 4,8 7,6 10,3 12,2 11,3 17,6 21,6 16,8 41 59 78 993 1.019 1.034 NW 8,6 86,9 4,6
01/2024 1,1 6,5 12,0 10,9 8,0 15,8 23,2 22,1 45 66 89 1.003 1.022 1.036 WNW 6,2 93,3 14,6
12/2023 0,8 6,8 12,4 11,0 13,4 15,7 20,9 20,1 36 61 83 999 1.022 1.038 WNW 8,3 78,9 6,4
11/2023 4,6 9,8 14,2 14,7 15,7 20,3 25,6 21,0 37 60 82 1.000 1.016 1.027 WNW 6,9 75,6 3,6
10/2023 8,4 13,9 18,7 18,7 17,4 24,1 28,9 20,5 48 72 90 995 1.015 1.026 SE 3,7 54,7 7,0
09/2023 11,6 16,8 21,3 20,8 20,2 25,6 29,8 18,2 54 79 94 1.007 1.017 1.024 SSO 4,5 41,8 113,4
08/2023 15,8 19,8 23,3 25,0 22,9 30,8 37,5 21,7 40 64 81 1.010 1.015 1.021 SE 7,5 77,2 12,6
07/2023 17,1 20,2 23,5 24,6 26,1 29,5 35,1 18,0 53 76 88 1.009 1.016 1.020 SE 5,1 37,0 24,0
06/2023 12,8 16,8 20,9 21,7 21,7 26,9 32,2 19,4 57 72 84 1.009 1.015 1.022 SE 5,3 49,9 30,4
05/2023 9,5 12,3 14,5 17,1 18,0 22,3 26,1 16,6 44 63 95 1.013 1.016 1.021 WNW 8,0 75,6 132,2
04/2023 4,1 9,4 15,9 14,9 16,4 20,9 27,1 23,0 39 64 85 1.008 1.016 1.022 SE 8,3 88,5 6,2
Tots els anys disponibles
2023 -0,2 11,9 23,5 16,6 5,4 21,9 37,5 37,7 27 67 95 995 1.018 1.038 WNW 6,6 95,0 403,4
2022 0,0 12,6 23,9 17,3 8,6 22,4 38,4 38,4 30 69 97 993 1.018 1.034 S 6,0 101,2 601,7
Temperatura (°C)
Humitat relativa (%)
Velocitat del vent i ràfega màxima (km/h)
Direcció del vent (°)
Pressió (hPa)
Precipitació (mm)
Nota sobre les dades: s'avisa a l'usuari de la provisionalitat i no oficialitat d'aquestes dades
Logo AVAMET blanc
Web allotjada a Sollutia
Llicència de Creative CommonsLa web d'AVAMET i els seus continguts estan subjectes a una llicència de
Reconeixement - No Comercial - Compartir igual
Avís legal - Política de privacitat - Política de cookies - Canviar configuració privacitat
NOVES ESTACIONS: l'Alcúdia de Veo - Benitandús (Soci), Sant Vicent del Raspeig - Lab Climatologia (Universitat d'Alacant), València - IES Districte Marítim (Soci), El Toro - Calle Mayor (Soci), Villena - Cabrera/Casa Anvers (Soci), Vinaròs - IES José Vilaplana (Soci), València - Col·legi Pureza de María Grao (Soci), Sella - Tagarina/El Volador (Soci), Quart de Poblet - los Hornillos (Soci), Buñol - Partior (Soci), la Pobla de Farnals - Platja (Ajuntament/Soci), la Pobla de Farnals (Ajuntament/Soci), Calp (Ajuntament/Soci),  Carlet (Ajuntament/Soci), l'Alcora - la Foia (Ajuntament/Soci), Sant Vicent del Raspeig - las Ocas (Soci), Alcoi - IES Cotes Baixes (Soci), San Antonio de Benagéber - CELSAB (Soci), la Todolella (Ajuntament/Soci), Suera - Res. Espadà (Soci) - - -